sensor_id;sensor_type;location;lat;lon;timestamp;P1;durP1;ratioP1;P2;durP2;ratioP2
11827;SDS011;5971;49.646;8.568;2023-02-17T00:02:57;16.23;;;6.78;;
11827;SDS011;5971;49.646;8.568;2023-02-17T00:05:59;10.88;;;5.78;;
11827;SDS011;5971;49.646;8.568;2023-02-17T00:09:05;15.25;;;7.00;;
11827;SDS011;5971;49.646;8.568;2023-02-17T00:12:07;12.77;;;6.15;;
11827;SDS011;5971;49.646;8.568;2023-02-17T00:15:08;11.00;;;5.20;;
11827;SDS011;5971;49.646;8.568;2023-02-17T00:18:10;12.73;;;6.25;;
11827;SDS011;5971;49.646;8.568;2023-02-17T00:21:15;12.07;;;6.03;;
11827;SDS011;5971;49.646;8.568;2023-02-17T00:24:17;11.02;;;5.90;;
11827;SDS011;5971;49.646;8.568;2023-02-17T00:27:18;12.05;;;6.20;;
11827;SDS011;5971;49.646;8.568;2023-02-17T00:30:20;10.90;;;5.45;;
11827;SDS011;5971;49.646;8.568;2023-02-17T00:33:21;9.82;;;5.22;;
11827;SDS011;5971;49.646;8.568;2023-02-17T00:36:23;9.18;;;5.05;;
11827;SDS011;5971;49.646;8.568;2023-02-17T00:39:24;11.70;;;5.07;;
11827;SDS011;5971;49.646;8.568;2023-02-17T00:42:26;9.27;;;4.63;;
11827;SDS011;5971;49.646;8.568;2023-02-17T00:45:27;9.77;;;5.05;;
11827;SDS011;5971;49.646;8.568;2023-02-17T00:48:29;7.72;;;4.90;;
11827;SDS011;5971;49.646;8.568;2023-02-17T00:51:30;9.10;;;4.45;;
11827;SDS011;5971;49.646;8.568;2023-02-17T00:54:32;11.70;;;5.32;;
11827;SDS011;5971;49.646;8.568;2023-02-17T00:57:33;11.10;;;5.05;;
11827;SDS011;5971;49.646;8.568;2023-02-17T01:00:34;9.68;;;5.18;;
11827;SDS011;5971;49.646;8.568;2023-02-17T01:03:35;9.88;;;5.40;;
11827;SDS011;5971;49.646;8.568;2023-02-17T01:06:37;8.95;;;4.93;;
11827;SDS011;5971;49.646;8.568;2023-02-17T01:09:39;8.52;;;4.78;;
11827;SDS011;5971;49.646;8.568;2023-02-17T01:12:40;8.90;;;4.57;;
11827;SDS011;5971;49.646;8.568;2023-02-17T01:15:43;7.45;;;4.68;;
11827;SDS011;5971;49.646;8.568;2023-02-17T01:18:44;6.90;;;3.85;;
11827;SDS011;5971;49.646;8.568;2023-02-17T01:21:46;8.13;;;4.70;;
11827;SDS011;5971;49.646;8.568;2023-02-17T01:24:47;8.55;;;4.65;;
11827;SDS011;5971;49.646;8.568;2023-02-17T01:27:48;8.63;;;4.63;;
11827;SDS011;5971;49.646;8.568;2023-02-17T01:30:49;8.20;;;4.38;;
11827;SDS011;5971;49.646;8.568;2023-02-17T01:33:51;7.07;;;3.88;;
11827;SDS011;5971;49.646;8.568;2023-02-17T01:36:53;8.88;;;4.13;;
11827;SDS011;5971;49.646;8.568;2023-02-17T01:39:54;8.70;;;4.30;;
11827;SDS011;5971;49.646;8.568;2023-02-17T01:42:55;8.90;;;4.47;;
11827;SDS011;5971;49.646;8.568;2023-02-17T01:45:57;9.98;;;4.28;;
11827;SDS011;5971;49.646;8.568;2023-02-17T01:48:59;9.13;;;4.45;;
11827;SDS011;5971;49.646;8.568;2023-02-17T01:55:35;8.45;;;4.38;;
11827;SDS011;5971;49.646;8.568;2023-02-17T01:58:38;10.32;;;4.05;;
11827;SDS011;5971;49.646;8.568;2023-02-17T02:01:40;9.38;;;4.57;;
11827;SDS011;5971;49.646;8.568;2023-02-17T02:04:42;8.73;;;4.30;;
11827;SDS011;5971;49.646;8.568;2023-02-17T02:07:43;12.50;;;6.25;;
11827;SDS011;5971;49.646;8.568;2023-02-17T02:10:45;9.15;;;5.20;;
11827;SDS011;5971;49.646;8.568;2023-02-17T02:13:47;9.05;;;4.63;;
11827;SDS011;5971;49.646;8.568;2023-02-17T02:17:11;8.60;;;5.03;;
11827;SDS011;5971;49.646;8.568;2023-02-17T02:26:41;10.05;;;4.35;;
11827;SDS011;5971;49.646;8.568;2023-02-17T02:33:08;9.27;;;5.13;;
11827;SDS011;5971;49.646;8.568;2023-02-17T02:36:20;7.72;;;4.18;;
11827;SDS011;5971;49.646;8.568;2023-02-17T02:42:25;6.30;;;4.30;;
11827;SDS011;5971;49.646;8.568;2023-02-17T02:45:27;7.20;;;3.72;;
11827;SDS011;5971;49.646;8.568;2023-02-17T02:48:28;8.63;;;3.90;;
11827;SDS011;5971;49.646;8.568;2023-02-17T02:51:52;6.80;;;4.15;;
11827;SDS011;5971;49.646;8.568;2023-02-17T02:54:56;8.70;;;4.07;;
11827;SDS011;5971;49.646;8.568;2023-02-17T03:01:09;8.65;;;4.18;;
11827;SDS011;5971;49.646;8.568;2023-02-17T03:04:18;8.93;;;4.32;;
11827;SDS011;5971;49.646;8.568;2023-02-17T03:07:31;8.98;;;4.63;;
11827;SDS011;5971;49.646;8.568;2023-02-17T03:10:33;9.82;;;4.55;;
11827;SDS011;5971;49.646;8.568;2023-02-17T03:13:35;9.70;;;3.67;;
11827;SDS011;5971;49.646;8.568;2023-02-17T03:19:40;7.85;;;3.25;;
11827;SDS011;5971;49.646;8.568;2023-02-17T03:22:44;7.72;;;3.88;;
11827;SDS011;5971;49.646;8.568;2023-02-17T03:25:46;8.18;;;3.67;;
11827;SDS011;5971;49.646;8.568;2023-02-17T03:28:47;8.63;;;4.47;;
11827;SDS011;5971;49.646;8.568;2023-02-17T03:31:48;8.57;;;4.13;;
11827;SDS011;5971;49.646;8.568;2023-02-17T03:34:50;9.50;;;4.20;;
11827;SDS011;5971;49.646;8.568;2023-02-17T03:37:51;8.38;;;4.18;;
11827;SDS011;5971;49.646;8.568;2023-02-17T03:40:52;5.90;;;3.15;;
11827;SDS011;5971;49.646;8.568;2023-02-17T03:43:54;6.57;;;3.30;;
11827;SDS011;5971;49.646;8.568;2023-02-17T03:46:55;6.88;;;3.85;;
11827;SDS011;5971;49.646;8.568;2023-02-17T03:49:56;6.93;;;3.53;;
11827;SDS011;5971;49.646;8.568;2023-02-17T03:52:57;8.15;;;3.53;;
11827;SDS011;5971;49.646;8.568;2023-02-17T03:55:59;6.68;;;3.40;;
11827;SDS011;5971;49.646;8.568;2023-02-17T03:59:00;6.47;;;3.35;;
11827;SDS011;5971;49.646;8.568;2023-02-17T04:02:01;8.20;;;2.65;;
11827;SDS011;5971;49.646;8.568;2023-02-17T04:05:03;5.63;;;3.40;;
11827;SDS011;5971;49.646;8.568;2023-02-17T04:08:04;10.10;;;3.30;;
11827;SDS011;5971;49.646;8.568;2023-02-17T04:11:06;5.90;;;2.45;;
11827;SDS011;5971;49.646;8.568;2023-02-17T04:14:07;6.22;;;3.25;;
11827;SDS011;5971;49.646;8.568;2023-02-17T04:17:09;4.82;;;2.38;;
11827;SDS011;5971;49.646;8.568;2023-02-17T04:20:10;5.05;;;2.95;;
11827;SDS011;5971;49.646;8.568;2023-02-17T04:23:11;6.50;;;3.85;;
11827;SDS011;5971;49.646;8.568;2023-02-17T04:26:14;5.20;;;2.80;;
11827;SDS011;5971;49.646;8.568;2023-02-17T04:29:15;5.32;;;2.67;;
11827;SDS011;5971;49.646;8.568;2023-02-17T04:32:17;6.68;;;3.22;;
11827;SDS011;5971;49.646;8.568;2023-02-17T04:35:18;7.00;;;2.97;;
11827;SDS011;5971;49.646;8.568;2023-02-17T04:38:19;5.68;;;2.60;;
11827;SDS011;5971;49.646;8.568;2023-02-17T04:41:21;6.38;;;2.83;;
11827;SDS011;5971;49.646;8.568;2023-02-17T04:44:22;6.63;;;3.20;;
11827;SDS011;5971;49.646;8.568;2023-02-17T04:47:23;6.45;;;3.13;;
11827;SDS011;5971;49.646;8.568;2023-02-17T04:50:24;7.50;;;3.42;;
11827;SDS011;5971;49.646;8.568;2023-02-17T04:53:26;4.95;;;3.03;;
11827;SDS011;5971;49.646;8.568;2023-02-17T04:56:27;6.15;;;3.17;;
11827;SDS011;5971;49.646;8.568;2023-02-17T04:59:28;4.10;;;2.40;;
11827;SDS011;5971;49.646;8.568;2023-02-17T05:02:30;6.43;;;2.92;;
11827;SDS011;5971;49.646;8.568;2023-02-17T05:05:31;5.90;;;2.85;;
11827;SDS011;5971;49.646;8.568;2023-02-17T05:08:33;6.05;;;2.60;;
11827;SDS011;5971;49.646;8.568;2023-02-17T05:11:34;6.18;;;2.92;;
11827;SDS011;5971;49.646;8.568;2023-02-17T05:14:35;5.10;;;2.65;;
11827;SDS011;5971;49.646;8.568;2023-02-17T05:17:37;4.57;;;2.40;;
11827;SDS011;5971;49.646;8.568;2023-02-17T05:20:38;5.22;;;2.60;;
11827;SDS011;5971;49.646;8.568;2023-02-17T05:23:40;5.55;;;2.75;;
11827;SDS011;5971;49.646;8.568;2023-02-17T05:26:41;6.93;;;3.03;;
11827;SDS011;5971;49.646;8.568;2023-02-17T05:29:43;5.40;;;2.53;;
11827;SDS011;5971;49.646;8.568;2023-02-17T05:32:44;6.45;;;3.00;;
11827;SDS011;5971;49.646;8.568;2023-02-17T05:35:45;6.38;;;3.00;;
11827;SDS011;5971;49.646;8.568;2023-02-17T05:38:47;6.18;;;3.38;;
11827;SDS011;5971;49.646;8.568;2023-02-17T05:41:49;6.72;;;3.22;;
11827;SDS011;5971;49.646;8.568;2023-02-17T05:44:51;7.20;;;3.70;;
11827;SDS011;5971;49.646;8.568;2023-02-17T05:47:52;7.90;;;4.05;;
11827;SDS011;5971;49.646;8.568;2023-02-17T05:50:53;6.85;;;4.03;;
11827;SDS011;5971;49.646;8.568;2023-02-17T05:53:55;7.95;;;3.78;;
11827;SDS011;5971;49.646;8.568;2023-02-17T05:56:56;5.10;;;2.70;;
11827;SDS011;5971;49.646;8.568;2023-02-17T05:59:57;7.30;;;3.35;;
11827;SDS011;5971;49.646;8.568;2023-02-17T06:02:59;5.75;;;3.17;;
11827;SDS011;5971;49.646;8.568;2023-02-17T06:06:00;7.03;;;3.47;;
11827;SDS011;5971;49.646;8.568;2023-02-17T06:09:02;7.38;;;3.30;;
11827;SDS011;5971;49.646;8.568;2023-02-17T06:12:03;5.35;;;2.65;;
11827;SDS011;5971;49.646;8.568;2023-02-17T06:15:05;5.35;;;2.90;;
11827;SDS011;5971;49.646;8.568;2023-02-17T06:18:06;6.72;;;3.20;;
11827;SDS011;5971;49.646;8.568;2023-02-17T06:21:07;5.20;;;2.70;;
11827;SDS011;5971;49.646;8.568;2023-02-17T06:24:08;4.03;;;2.33;;
11827;SDS011;5971;49.646;8.568;2023-02-17T06:27:10;5.88;;;2.03;;
11827;SDS011;5971;49.646;8.568;2023-02-17T06:30:11;6.53;;;2.53;;
11827;SDS011;5971;49.646;8.568;2023-02-17T06:33:13;3.88;;;2.33;;
11827;SDS011;5971;49.646;8.568;2023-02-17T06:36:15;2.97;;;1.85;;
11827;SDS011;5971;49.646;8.568;2023-02-17T06:39:16;3.47;;;1.85;;
11827;SDS011;5971;49.646;8.568;2023-02-17T06:42:17;3.67;;;2.25;;
11827;SDS011;5971;49.646;8.568;2023-02-17T06:45:19;3.30;;;1.85;;
11827;SDS011;5971;49.646;8.568;2023-02-17T06:48:20;3.08;;;1.63;;
11827;SDS011;5971;49.646;8.568;2023-02-17T06:51:21;4.97;;;1.98;;
11827;SDS011;5971;49.646;8.568;2023-02-17T06:54:23;4.13;;;2.10;;
11827;SDS011;5971;49.646;8.568;2023-02-17T06:57:24;5.85;;;2.53;;
11827;SDS011;5971;49.646;8.568;2023-02-17T07:00:25;4.78;;;2.05;;
11827;SDS011;5971;49.646;8.568;2023-02-17T07:03:27;3.00;;;1.58;;
11827;SDS011;5971;49.646;8.568;2023-02-17T07:06:28;3.40;;;2.15;;
11827;SDS011;5971;49.646;8.568;2023-02-17T07:09:29;5.20;;;2.38;;
11827;SDS011;5971;49.646;8.568;2023-02-17T07:12:31;4.15;;;2.00;;
11827;SDS011;5971;49.646;8.568;2023-02-17T07:15:32;3.05;;;1.65;;
11827;SDS011;5971;49.646;8.568;2023-02-17T07:18:33;5.13;;;2.70;;
11827;SDS011;5971;49.646;8.568;2023-02-17T07:21:35;4.25;;;2.22;;
11827;SDS011;5971;49.646;8.568;2023-02-17T07:24:36;4.90;;;2.10;;
11827;SDS011;5971;49.646;8.568;2023-02-17T07:27:37;3.90;;;2.10;;
11827;SDS011;5971;49.646;8.568;2023-02-17T07:30:39;4.30;;;2.00;;
11827;SDS011;5971;49.646;8.568;2023-02-17T07:33:41;4.55;;;2.13;;
11827;SDS011;5971;49.646;8.568;2023-02-17T07:36:43;3.88;;;2.17;;
11827;SDS011;5971;49.646;8.568;2023-02-17T07:39:44;5.28;;;2.30;;
11827;SDS011;5971;49.646;8.568;2023-02-17T07:42:45;2.95;;;1.73;;
11827;SDS011;5971;49.646;8.568;2023-02-17T07:45:47;4.75;;;2.33;;
11827;SDS011;5971;49.646;8.568;2023-02-17T07:48:48;5.75;;;2.28;;
11827;SDS011;5971;49.646;8.568;2023-02-17T07:51:49;3.35;;;1.80;;
11827;SDS011;5971;49.646;8.568;2023-02-17T07:54:51;3.13;;;1.75;;
11827;SDS011;5971;49.646;8.568;2023-02-17T07:57:52;3.45;;;1.88;;
11827;SDS011;5971;49.646;8.568;2023-02-17T08:00:53;3.00;;;1.73;;
11827;SDS011;5971;49.646;8.568;2023-02-17T08:03:55;3.72;;;1.70;;
11827;SDS011;5971;49.646;8.568;2023-02-17T08:06:56;4.03;;;2.10;;
11827;SDS011;5971;49.646;8.568;2023-02-17T08:09:57;3.95;;;2.13;;
11827;SDS011;5971;49.646;8.568;2023-02-17T08:13:17;3.70;;;2.15;;
11827;SDS011;5971;49.646;8.568;2023-02-17T08:16:19;4.10;;;1.88;;
11827;SDS011;5971;49.646;8.568;2023-02-17T08:19:20;3.75;;;1.83;;
11827;SDS011;5971;49.646;8.568;2023-02-17T08:22:22;4.05;;;2.03;;
11827;SDS011;5971;49.646;8.568;2023-02-17T08:25:23;4.28;;;1.88;;
11827;SDS011;5971;49.646;8.568;2023-02-17T08:28:24;4.32;;;1.90;;
11827;SDS011;5971;49.646;8.568;2023-02-17T08:31:27;3.55;;;2.05;;
11827;SDS011;5971;49.646;8.568;2023-02-17T08:34:29;3.83;;;2.10;;
11827;SDS011;5971;49.646;8.568;2023-02-17T08:37:33;3.92;;;2.05;;
11827;SDS011;5971;49.646;8.568;2023-02-17T08:40:35;3.60;;;1.85;;
11827;SDS011;5971;49.646;8.568;2023-02-17T08:43:36;4.18;;;2.45;;
11827;SDS011;5971;49.646;8.568;2023-02-17T08:46:37;4.03;;;2.30;;
11827;SDS011;5971;49.646;8.568;2023-02-17T08:49:39;4.00;;;2.05;;
11827;SDS011;5971;49.646;8.568;2023-02-17T08:52:40;4.28;;;2.05;;
11827;SDS011;5971;49.646;8.568;2023-02-17T08:55:42;3.97;;;2.28;;
11827;SDS011;5971;49.646;8.568;2023-02-17T08:58:50;5.13;;;2.42;;
11827;SDS011;5971;49.646;8.568;2023-02-17T09:01:51;5.78;;;2.47;;
11827;SDS011;5971;49.646;8.568;2023-02-17T09:04:53;9.05;;;3.88;;
11827;SDS011;5971;49.646;8.568;2023-02-17T09:07:54;7.60;;;4.07;;
11827;SDS011;5971;49.646;8.568;2023-02-17T09:10:55;7.95;;;3.85;;
11827;SDS011;5971;49.646;8.568;2023-02-17T09:13:57;7.78;;;3.25;;
11827;SDS011;5971;49.646;8.568;2023-02-17T09:16:58;5.93;;;2.72;;
11827;SDS011;5971;49.646;8.568;2023-02-17T09:19:59;7.85;;;2.85;;
11827;SDS011;5971;49.646;8.568;2023-02-17T09:23:01;6.95;;;2.85;;
11827;SDS011;5971;49.646;8.568;2023-02-17T09:26:03;5.63;;;3.05;;
11827;SDS011;5971;49.646;8.568;2023-02-17T09:29:05;4.80;;;2.85;;
11827;SDS011;5971;49.646;8.568;2023-02-17T09:32:07;6.60;;;2.83;;
11827;SDS011;5971;49.646;8.568;2023-02-17T09:35:15;5.20;;;3.15;;
11827;SDS011;5971;49.646;8.568;2023-02-17T09:38:17;8.98;;;4.65;;
11827;SDS011;5971;49.646;8.568;2023-02-17T09:41:38;6.95;;;3.35;;
11827;SDS011;5971;49.646;8.568;2023-02-17T09:44:42;6.57;;;2.70;;
11827;SDS011;5971;49.646;8.568;2023-02-17T09:47:49;7.30;;;3.25;;
11827;SDS011;5971;49.646;8.568;2023-02-17T09:50:55;5.82;;;2.78;;
11827;SDS011;5971;49.646;8.568;2023-02-17T09:54:09;7.70;;;3.67;;
11827;SDS011;5971;49.646;8.568;2023-02-17T09:57:15;7.75;;;4.55;;
11827;SDS011;5971;49.646;8.568;2023-02-17T10:00:24;7.93;;;3.78;;
11827;SDS011;5971;49.646;8.568;2023-02-17T10:07:06;6.18;;;3.40;;
11827;SDS011;5971;49.646;8.568;2023-02-17T10:10:07;7.53;;;3.50;;
11827;SDS011;5971;49.646;8.568;2023-02-17T10:13:10;12.88;;;6.55;;
11827;SDS011;5971;49.646;8.568;2023-02-17T10:16:14;22.83;;;6.72;;
11827;SDS011;5971;49.646;8.568;2023-02-17T10:19:23;12.15;;;5.05;;
11827;SDS011;5971;49.646;8.568;2023-02-17T10:22:26;13.65;;;5.80;;
11827;SDS011;5971;49.646;8.568;2023-02-17T10:25:43;8.00;;;4.30;;
11827;SDS011;5971;49.646;8.568;2023-02-17T10:29:00;16.88;;;7.53;;
11827;SDS011;5971;49.646;8.568;2023-02-17T10:35:16;3.45;;;1.92;;
11827;SDS011;5971;49.646;8.568;2023-02-17T10:41:38;4.90;;;2.28;;
11827;SDS011;5971;49.646;8.568;2023-02-17T10:44:41;5.55;;;2.88;;
11827;SDS011;5971;49.646;8.568;2023-02-17T10:47:42;5.15;;;3.03;;
11827;SDS011;5971;49.646;8.568;2023-02-17T10:50:44;5.20;;;2.67;;
11827;SDS011;5971;49.646;8.568;2023-02-17T10:53:46;4.00;;;1.95;;
11827;SDS011;5971;49.646;8.568;2023-02-17T10:56:49;4.25;;;2.30;;
11827;SDS011;5971;49.646;8.568;2023-02-17T10:59:52;3.83;;;2.25;;
11827;SDS011;5971;49.646;8.568;2023-02-17T11:02:53;3.65;;;1.73;;
11827;SDS011;5971;49.646;8.568;2023-02-17T11:05:55;3.85;;;2.30;;
11827;SDS011;5971;49.646;8.568;2023-02-17T11:08:59;2.22;;;1.25;;
11827;SDS011;5971;49.646;8.568;2023-02-17T11:12:05;3.22;;;1.50;;
11827;SDS011;5971;49.646;8.568;2023-02-17T11:18:34;4.38;;;1.50;;
11827;SDS011;5971;49.646;8.568;2023-02-17T11:21:41;4.00;;;1.92;;
11827;SDS011;5971;49.646;8.568;2023-02-17T11:24:43;3.50;;;1.70;;
11827;SDS011;5971;49.646;8.568;2023-02-17T11:27:54;4.10;;;1.73;;
11827;SDS011;5971;49.646;8.568;2023-02-17T11:30:57;2.47;;;1.63;;
11827;SDS011;5971;49.646;8.568;2023-02-17T11:34:08;3.38;;;1.95;;
11827;SDS011;5971;49.646;8.568;2023-02-17T11:40:24;3.28;;;1.73;;
11827;SDS011;5971;49.646;8.568;2023-02-17T11:43:27;2.45;;;1.30;;
11827;SDS011;5971;49.646;8.568;2023-02-17T11:46:31;3.50;;;1.63;;
11827;SDS011;5971;49.646;8.568;2023-02-17T11:49:37;2.95;;;1.60;;
11827;SDS011;5971;49.646;8.568;2023-02-17T11:52:44;3.67;;;2.15;;
11827;SDS011;5971;49.646;8.568;2023-02-17T11:55:52;3.30;;;1.70;;
11827;SDS011;5971;49.646;8.568;2023-02-17T11:59:03;3.75;;;1.80;;
11827;SDS011;5971;49.646;8.568;2023-02-17T12:02:16;2.83;;;1.25;;
11827;SDS011;5971;49.646;8.568;2023-02-17T12:08:47;3.00;;;1.23;;
11827;SDS011;5971;49.646;8.568;2023-02-17T12:11:49;2.30;;;1.38;;
11827;SDS011;5971;49.646;8.568;2023-02-17T12:21:00;2.78;;;1.38;;
11827;SDS011;5971;49.646;8.568;2023-02-17T12:24:06;6.57;;;2.15;;
11827;SDS011;5971;49.646;8.568;2023-02-17T12:36:31;1.50;;;1.13;;
11827;SDS011;5971;49.646;8.568;2023-02-17T12:39:40;3.42;;;1.55;;
11827;SDS011;5971;49.646;8.568;2023-02-17T12:42:44;1.42;;;0.93;;
11827;SDS011;5971;49.646;8.568;2023-02-17T12:45:51;2.58;;;1.20;;
11827;SDS011;5971;49.646;8.568;2023-02-17T12:55:29;1.90;;;1.05;;
11827;SDS011;5971;49.646;8.568;2023-02-17T12:58:32;1.90;;;1.00;;
11827;SDS011;5971;49.646;8.568;2023-02-17T13:01:34;2.05;;;1.02;;
11827;SDS011;5971;49.646;8.568;2023-02-17T13:04:36;1.98;;;1.23;;
11827;SDS011;5971;49.646;8.568;2023-02-17T13:10:39;1.88;;;1.13;;
11827;SDS011;5971;49.646;8.568;2023-02-17T13:13:41;1.75;;;0.98;;
11827;SDS011;5971;49.646;8.568;2023-02-17T13:16:43;1.02;;;0.82;;
11827;SDS011;5971;49.646;8.568;2023-02-17T13:19:44;0.93;;;0.68;;
11827;SDS011;5971;49.646;8.568;2023-02-17T13:22:46;2.63;;;1.25;;
11827;SDS011;5971;49.646;8.568;2023-02-17T13:26:00;1.58;;;1.08;;
11827;SDS011;5971;49.646;8.568;2023-02-17T13:32:11;2.08;;;1.42;;
11827;SDS011;5971;49.646;8.568;2023-02-17T13:35:28;1.48;;;0.90;;
11827;SDS011;5971;49.646;8.568;2023-02-17T13:38:30;1.25;;;0.98;;
11827;SDS011;5971;49.646;8.568;2023-02-17T13:41:33;2.78;;;1.00;;
11827;SDS011;5971;49.646;8.568;2023-02-17T13:44:43;1.75;;;1.05;;
11827;SDS011;5971;49.646;8.568;2023-02-17T13:47:47;1.77;;;1.17;;
11827;SDS011;5971;49.646;8.568;2023-02-17T13:51:07;1.80;;;0.93;;
11827;SDS011;5971;49.646;8.568;2023-02-17T13:54:13;1.45;;;0.88;;
11827;SDS011;5971;49.646;8.568;2023-02-17T13:57:25;1.42;;;0.77;;
11827;SDS011;5971;49.646;8.568;2023-02-17T14:00:28;1.80;;;0.93;;
11827;SDS011;5971;49.646;8.568;2023-02-17T14:03:32;1.17;;;0.82;;
11827;SDS011;5971;49.646;8.568;2023-02-17T14:06:35;1.75;;;1.05;;
11827;SDS011;5971;49.646;8.568;2023-02-17T14:09:37;1.48;;;1.05;;
11827;SDS011;5971;49.646;8.568;2023-02-17T14:12:39;1.50;;;0.88;;
11827;SDS011;5971;49.646;8.568;2023-02-17T14:15:51;1.52;;;1.13;;
11827;SDS011;5971;49.646;8.568;2023-02-17T14:25:26;1.48;;;1.02;;
11827;SDS011;5971;49.646;8.568;2023-02-17T14:28:27;1.65;;;1.02;;
11827;SDS011;5971;49.646;8.568;2023-02-17T14:31:30;1.85;;;1.25;;
11827;SDS011;5971;49.646;8.568;2023-02-17T14:34:38;1.48;;;0.77;;
11827;SDS011;5971;49.646;8.568;2023-02-17T14:37:40;1.30;;;0.82;;
11827;SDS011;5971;49.646;8.568;2023-02-17T14:40:42;2.72;;;1.50;;
11827;SDS011;5971;49.646;8.568;2023-02-17T14:43:43;1.90;;;1.02;;
11827;SDS011;5971;49.646;8.568;2023-02-17T14:46:44;2.25;;;1.23;;
11827;SDS011;5971;49.646;8.568;2023-02-17T14:49:46;2.03;;;1.33;;
11827;SDS011;5971;49.646;8.568;2023-02-17T14:52:47;1.67;;;1.02;;
11827;SDS011;5971;49.646;8.568;2023-02-17T14:55:50;1.40;;;0.90;;
11827;SDS011;5971;49.646;8.568;2023-02-17T14:58:53;2.30;;;1.23;;
11827;SDS011;5971;49.646;8.568;2023-02-17T15:01:54;2.80;;;1.40;;
11827;SDS011;5971;49.646;8.568;2023-02-17T15:04:56;1.98;;;1.00;;
11827;SDS011;5971;49.646;8.568;2023-02-17T15:07:58;3.28;;;1.58;;
11827;SDS011;5971;49.646;8.568;2023-02-17T15:11:01;3.67;;;2.03;;
11827;SDS011;5971;49.646;8.568;2023-02-17T15:14:03;2.47;;;1.30;;
11827;SDS011;5971;49.646;8.568;2023-02-17T15:17:04;2.40;;;1.33;;
11827;SDS011;5971;49.646;8.568;2023-02-17T15:20:05;2.53;;;1.13;;
11827;SDS011;5971;49.646;8.568;2023-02-17T15:23:10;2.53;;;1.30;;
11827;SDS011;5971;49.646;8.568;2023-02-17T15:26:12;2.30;;;1.40;;
11827;SDS011;5971;49.646;8.568;2023-02-17T15:29:15;3.03;;;1.67;;
11827;SDS011;5971;49.646;8.568;2023-02-17T15:32:16;2.50;;;1.40;;
11827;SDS011;5971;49.646;8.568;2023-02-17T15:38:22;1.67;;;0.88;;
11827;SDS011;5971;49.646;8.568;2023-02-17T15:41:24;3.13;;;1.70;;
11827;SDS011;5971;49.646;8.568;2023-02-17T15:44:29;2.55;;;1.40;;
11827;SDS011;5971;49.646;8.568;2023-02-17T15:47:33;1.92;;;0.98;;
11827;SDS011;5971;49.646;8.568;2023-02-17T15:50:34;3.50;;;1.38;;
11827;SDS011;5971;49.646;8.568;2023-02-17T15:53:36;2.88;;;1.55;;
11827;SDS011;5971;49.646;8.568;2023-02-17T15:56:44;3.75;;;1.23;;
11827;SDS011;5971;49.646;8.568;2023-02-17T15:59:46;2.42;;;1.30;;
11827;SDS011;5971;49.646;8.568;2023-02-17T16:02:48;2.25;;;1.17;;
11827;SDS011;5971;49.646;8.568;2023-02-17T16:05:49;2.38;;;1.33;;
11827;SDS011;5971;49.646;8.568;2023-02-17T16:08:51;2.55;;;1.40;;
11827;SDS011;5971;49.646;8.568;2023-02-17T16:11:52;2.78;;;1.40;;
11827;SDS011;5971;49.646;8.568;2023-02-17T16:14:54;3.22;;;1.63;;
11827;SDS011;5971;49.646;8.568;2023-02-17T16:17:56;3.00;;;1.55;;
11827;SDS011;5971;49.646;8.568;2023-02-17T16:20:58;2.97;;;1.27;;
11827;SDS011;5971;49.646;8.568;2023-02-17T16:24:00;2.28;;;1.42;;
11827;SDS011;5971;49.646;8.568;2023-02-17T16:27:01;3.78;;;1.83;;
11827;SDS011;5971;49.646;8.568;2023-02-17T16:33:20;2.70;;;1.60;;
11827;SDS011;5971;49.646;8.568;2023-02-17T16:36:22;2.13;;;1.35;;
11827;SDS011;5971;49.646;8.568;2023-02-17T16:39:23;3.67;;;1.63;;
11827;SDS011;5971;49.646;8.568;2023-02-17T16:42:24;3.05;;;1.65;;
11827;SDS011;5971;49.646;8.568;2023-02-17T16:45:27;3.20;;;1.73;;
11827;SDS011;5971;49.646;8.568;2023-02-17T16:48:29;2.42;;;1.33;;
11827;SDS011;5971;49.646;8.568;2023-02-17T16:51:31;2.50;;;1.33;;
11827;SDS011;5971;49.646;8.568;2023-02-17T16:54:32;2.92;;;1.65;;
11827;SDS011;5971;49.646;8.568;2023-02-17T16:57:36;2.22;;;1.33;;
11827;SDS011;5971;49.646;8.568;2023-02-17T17:00:37;2.45;;;1.45;;
11827;SDS011;5971;49.646;8.568;2023-02-17T17:03:39;3.05;;;1.50;;
11827;SDS011;5971;49.646;8.568;2023-02-17T17:06:44;2.83;;;1.55;;
11827;SDS011;5971;49.646;8.568;2023-02-17T17:09:46;3.53;;;1.73;;
11827;SDS011;5971;49.646;8.568;2023-02-17T17:13:07;2.78;;;1.60;;
11827;SDS011;5971;49.646;8.568;2023-02-17T17:16:13;3.08;;;1.63;;
11827;SDS011;5971;49.646;8.568;2023-02-17T17:19:15;3.53;;;1.73;;
11827;SDS011;5971;49.646;8.568;2023-02-17T17:22:16;3.05;;;2.25;;
11827;SDS011;5971;49.646;8.568;2023-02-17T17:25:17;2.75;;;1.52;;
11827;SDS011;5971;49.646;8.568;2023-02-17T17:28:19;3.03;;;2.00;;
11827;SDS011;5971;49.646;8.568;2023-02-17T17:31:20;2.72;;;2.13;;
11827;SDS011;5971;49.646;8.568;2023-02-17T17:34:22;2.33;;;1.30;;
11827;SDS011;5971;49.646;8.568;2023-02-17T17:37:23;4.03;;;2.03;;
11827;SDS011;5971;49.646;8.568;2023-02-17T17:40:26;3.42;;;1.50;;
11827;SDS011;5971;49.646;8.568;2023-02-17T17:43:28;3.33;;;1.80;;
11827;SDS011;5971;49.646;8.568;2023-02-17T17:46:30;2.55;;;1.45;;
11827;SDS011;5971;49.646;8.568;2023-02-17T17:49:32;2.50;;;1.38;;
11827;SDS011;5971;49.646;8.568;2023-02-17T17:52:33;1.63;;;1.35;;
11827;SDS011;5971;49.646;8.568;2023-02-17T17:55:34;2.50;;;1.45;;
11827;SDS011;5971;49.646;8.568;2023-02-17T17:58:36;2.78;;;1.63;;
11827;SDS011;5971;49.646;8.568;2023-02-17T18:01:39;2.60;;;1.70;;
11827;SDS011;5971;49.646;8.568;2023-02-17T18:04:40;2.55;;;1.30;;
11827;SDS011;5971;49.646;8.568;2023-02-17T18:07:42;2.85;;;1.52;;
11827;SDS011;5971;49.646;8.568;2023-02-17T18:10:44;2.33;;;1.40;;
11827;SDS011;5971;49.646;8.568;2023-02-17T18:13:46;2.53;;;1.42;;
11827;SDS011;5971;49.646;8.568;2023-02-17T18:16:48;2.90;;;1.33;;
11827;SDS011;5971;49.646;8.568;2023-02-17T18:19:49;2.13;;;1.30;;
11827;SDS011;5971;49.646;8.568;2023-02-17T18:22:54;2.35;;;1.30;;
11827;SDS011;5971;49.646;8.568;2023-02-17T18:25:55;3.08;;;1.52;;
11827;SDS011;5971;49.646;8.568;2023-02-17T18:28:57;2.58;;;1.65;;
11827;SDS011;5971;49.646;8.568;2023-02-17T18:31:58;3.78;;;1.45;;
11827;SDS011;5971;49.646;8.568;2023-02-17T18:35:00;1.63;;;1.00;;
11827;SDS011;5971;49.646;8.568;2023-02-17T18:38:01;4.45;;;1.40;;
11827;SDS011;5971;49.646;8.568;2023-02-17T18:41:03;2.67;;;1.33;;
11827;SDS011;5971;49.646;8.568;2023-02-17T18:44:04;2.20;;;1.20;;
11827;SDS011;5971;49.646;8.568;2023-02-17T18:47:06;2.40;;;1.40;;
11827;SDS011;5971;49.646;8.568;2023-02-17T18:50:07;2.17;;;1.35;;
11827;SDS011;5971;49.646;8.568;2023-02-17T18:53:09;1.65;;;0.88;;
11827;SDS011;5971;49.646;8.568;2023-02-17T18:56:11;3.30;;;1.55;;
11827;SDS011;5971;49.646;8.568;2023-02-17T18:59:13;2.08;;;1.17;;
11827;SDS011;5971;49.646;8.568;2023-02-17T19:02:14;2.97;;;1.65;;
11827;SDS011;5971;49.646;8.568;2023-02-17T19:05:16;3.35;;;1.67;;
11827;SDS011;5971;49.646;8.568;2023-02-17T19:08:17;2.15;;;1.15;;
11827;SDS011;5971;49.646;8.568;2023-02-17T19:11:19;2.25;;;1.25;;
11827;SDS011;5971;49.646;8.568;2023-02-17T19:14:21;3.28;;;1.70;;
11827;SDS011;5971;49.646;8.568;2023-02-17T19:17:22;3.30;;;1.85;;
11827;SDS011;5971;49.646;8.568;2023-02-17T19:20:24;2.63;;;1.45;;
11827;SDS011;5971;49.646;8.568;2023-02-17T19:23:26;2.67;;;1.48;;
11827;SDS011;5971;49.646;8.568;2023-02-17T19:26:27;2.53;;;1.35;;
11827;SDS011;5971;49.646;8.568;2023-02-17T19:29:29;3.05;;;1.63;;
11827;SDS011;5971;49.646;8.568;2023-02-17T19:32:30;3.40;;;1.42;;
11827;SDS011;5971;49.646;8.568;2023-02-17T19:35:31;2.53;;;1.33;;
11827;SDS011;5971;49.646;8.568;2023-02-17T19:38:33;3.05;;;1.33;;
11827;SDS011;5971;49.646;8.568;2023-02-17T19:41:34;3.08;;;1.50;;
11827;SDS011;5971;49.646;8.568;2023-02-17T19:44:36;2.70;;;1.55;;
11827;SDS011;5971;49.646;8.568;2023-02-17T19:47:37;2.15;;;1.30;;
11827;SDS011;5971;49.646;8.568;2023-02-17T19:50:38;3.08;;;1.67;;
11827;SDS011;5971;49.646;8.568;2023-02-17T19:53:40;4.18;;;2.00;;
11827;SDS011;5971;49.646;8.568;2023-02-17T19:56:43;3.45;;;1.40;;
11827;SDS011;5971;49.646;8.568;2023-02-17T19:59:44;3.40;;;2.00;;
11827;SDS011;5971;49.646;8.568;2023-02-17T20:02:45;3.20;;;1.95;;